Sunday, April 22, 2018, 9:51 PM EDT
Back to Local

KSMQ, Somerville Somerset Airport

Location: Bedminster, NJ, United States Lat: 40.617
Local Time: 9:51 PM EDT ( 1:51 GMT) Lon: -74.667
Time Zone: US/Eastern Elev: 104 ft

Show me the last for .
Show Decoded

2018-04-22 20:53 METAR KSMQ 230053Z AUTO 11003KT 10SM CLR 09/M03 A3033 RMK AO2 SLP271 T00941033 =
2018-04-22 19:53 METAR KSMQ 222353Z AUTO 00000KT 10SM CLR 13/M03 A3030 RMK AO2 SLP260 T01331028
                 10200 20133 53001 =
2018-04-22 18:53 METAR KSMQ 222253Z AUTO 31003KT 10SM CLR 19/M10 A3029 RMK AO2 SLP257 T01891100 =
2018-04-22 17:53 METAR KSMQ 222153Z AUTO VRB03KT 10SM CLR 19/M08 A3029 RMK AO2 SLP258 T01891078 =
2018-04-22 16:53 METAR KSMQ 222053Z AUTO VRB03KT 10SM CLR 19/M08 A3029 RMK AO2 SLP260 T01891083
                 56019 =
2018-04-22 15:53 METAR KSMQ 221953Z AUTO VRB03KT 10SM CLR 19/M08 A3030 RMK AO2 SLP263 T01891078 =
2018-04-22 14:53 METAR KSMQ 221853Z AUTO VRB03KT 10SM CLR 18/M08 A3033 RMK AO2 SLP269 T01831083 =
2018-04-22 13:53 METAR KSMQ 221753Z AUTO 35010G16KT 290V010 10SM CLR 17/M08 A3035 RMK AO2 SLP278
                 T01721078 10178 20039 56017 =
2018-04-22 12:53 METAR KSMQ 221653Z AUTO 31006KT 10SM CLR 17/M10 A3036 RMK AO2 SLP282 T01721100 =
2018-04-22 11:53 METAR KSMQ 221553Z AUTO 36008KT 10SM CLR 16/M09 A3039 RMK AO2 SLP290 T01561089 =
2018-04-22 10:53 METAR KSMQ 221453Z AUTO VRB05KT 10SM CLR 14/M07 A3040 RMK AO2 SLP295 T01441067
                 58005 =
2018-04-22 09:53 METAR KSMQ 221353Z AUTO VRB05KT 10SM CLR 13/M06 A3041 RMK AO2 SLP298 T01281056 =
2018-04-22 08:53 METAR KSMQ 221253Z AUTO 33003KT 10SM CLR 09/M03 A3042 RMK AO2 SLP301 T00941028 =
2018-04-22 07:53 METAR KSMQ 221153Z AUTO 00000KT 10SM CLR 04/M02 A3042 RMK AO2 SLP301 T00391022
                 10039 21017 51015 =
2018-04-22 06:53 METAR KSMQ 221053Z AUTO 00000KT 10SM CLR M01/M03 A3041 RMK AO2 SLP299 T10061028
                 =
2018-04-22 05:53 METAR KSMQ 220953Z AUTO 00000KT 10SM CLR M01/M03 A3039 RMK AO2 SLP291 T10111028
                 =
2018-04-22 04:53 METAR KSMQ 220853Z AUTO 00000KT 10SM CLR M01/M02 A3037 RMK AO2 SLP286 T10061022
                 50002 =
2018-04-22 03:53 METAR KSMQ 220753Z AUTO 32003KT 10SM CLR 00/M02 A3038 RMK AO2 SLP288 T00001022 =
2018-04-22 02:53 METAR KSMQ 220653Z AUTO 00000KT 10SM CLR 02/M01 A3038 RMK AO2 SLP288 T00171011 =
2018-04-22 01:53 METAR KSMQ 220553Z AUTO 00000KT 10SM CLR 02/M02 A3037 RMK AO2 SLP284 T00221017
                 10139 20022 53009 =
2018-04-22 00:53 METAR KSMQ 220453Z AUTO 34004KT 10SM CLR 04/M02 A3036 RMK AO2 SLP282 T00441017
                 401671028 =
2018-04-21 23:53 METAR KSMQ 220353Z AUTO 35003KT 10SM CLR 06/M02 A3034 RMK AO2 SLP276 T00561022 =
2018-04-21 22:53 METAR KSMQ 220253Z AUTO 00000KT 10SM CLR 06/M01 A3034 RMK AO2 SLP275 T00561011
                 51017 =
2018-04-21 21:53 METAR KSMQ 220153Z AUTO 33004KT 10SM CLR 09/M04 A3033 RMK AO2 SLP272 T00941044 =

Support USWX by starting your Amazon purchase here.